Time;durP1;ratioP1;P1;durP2;ratioP2;P2;SDS_P1;SDS_P2;PMS_P1;PMS_P2;Temp;Humidity;BMP_temperature;BMP_pressure;BME280_temperature;BME280_humidity;BME280_pressure;Samples;Min_cycle;Max_cycle;Signal;HPM_P1;HPM_P2
2021/04/18 00:00:17;;;;;;;31.80;18.98;;;;;;;8.45;60.84;96751.89;1784352;79;21494;-50
2021/04/18 00:02:47;;;;;;;27.35;18.52;;;;;;;8.43;60.71;96748.58;1788669;79;21200;-50
2021/04/18 00:05:21;;;;;;;31.52;18.87;;;;;;;8.37;60.74;96750.20;1785049;79;21057;-50
2021/04/18 00:07:51;;;;;;;34.25;21.17;;;;;;;8.33;60.82;96753.43;1790145;79;22383;-53
2021/04/18 00:10:18;;;;;;;38.17;21.93;;;;;;;8.29;60.93;96748.08;1780575;79;21101;-50
2021/04/18 00:12:47;;;;;;;40.95;21.85;;;;;;;8.23;61.01;96749.26;1780226;79;21122;-53
2021/04/18 00:15:15;;;;;;;39.83;21.10;;;;;;;8.20;61.32;96747.32;1789591;79;21125;-51
2021/04/18 00:17:42;;;;;;;39.23;21.75;;;;;;;8.20;61.52;96752.48;1783192;79;21129;-51
2021/04/18 00:20:12;;;;;;;34.43;20.27;;;;;;;8.18;61.67;96748.70;1760045;80;21197;-51
2021/04/18 00:22:42;;;;;;;;;;;;;;;8.18;61.90;96752.58;1767415;80;21148;-50
2021/04/18 00:25:16;;;;;;;36.63;17.82;;;;;;;8.19;62.02;96750.38;1772034;80;20313;-51
2021/04/18 00:27:46;;;;;;;29.23;17.15;;;;;;;8.20;62.14;96748.61;1767049;80;21160;-51
2021/04/18 00:30:16;;;;;;;27.30;17.12;;;;;;;8.24;62.17;96750.94;1767460;80;21110;-51
2021/04/18 00:32:44;;;;;;;29.95;16.75;;;;;;;8.22;62.13;96745.03;1772583;80;21352;-51
2021/04/18 00:35:13;;;;;;;26.90;16.55;;;;;;;8.21;62.12;96742.53;1767358;80;21133;-51
2021/04/18 00:37:40;;;;;;;25.77;15.95;;;;;;;8.24;62.14;96739.74;1764048;80;21192;-51
2021/04/18 00:40:10;;;;;;;24.00;15.48;;;;;;;8.27;61.96;96736.54;1772741;80;21072;-51
2021/04/18 00:42:38;;;;;;;26.90;16.60;;;;;;;8.29;61.90;96738.56;1784443;80;21073;-52
2021/04/18 00:45:08;;;;;;;25.27;16.25;;;;;;;8.28;61.80;96733.02;1777124;80;21587;-51
2021/04/18 00:47:35;;;;;;;24.92;16.02;;;;;;;8.27;61.99;96734.39;1781369;80;21075;-51
2021/04/18 00:50:05;;;;;;;22.35;15.98;;;;;;;8.24;62.06;96734.56;1735050;80;21130;-51
2021/04/18 00:52:34;;;;;;;28.75;15.88;;;;;;;8.21;62.17;96729.61;1761531;80;21147;-50
2021/04/18 00:55:04;;;;;;;28.67;15.30;;;;;;;8.17;62.15;96735.39;1782313;80;21120;-50
2021/04/18 00:57:33;;;;;;;28.77;15.98;;;;;;;8.13;62.21;96731.81;1769789;80;21468;-53
2021/04/18 01:00:01;;;;;;;27.35;15.25;;;;;;;8.09;62.40;96731.13;1763513;80;21203;-52
2021/04/18 01:02:29;;;;;;;32.73;15.50;;;;;;;8.07;62.47;96728.63;1776253;80;21054;-50
2021/04/18 01:04:58;;;;;;;33.30;17.25;;;;;;;8.05;62.59;96734.83;1786472;80;21473;-50
2021/04/18 01:07:26;;;;;;;26.80;15.63;;;;;;;8.03;62.74;96736.68;1787984;80;21473;-51
2021/04/18 01:09:54;;;;;;;29.87;16.30;;;;;;;8.05;62.77;96736.13;1774254;80;21193;-51
2021/04/18 01:12:26;;;;;;;28.95;16.73;;;;;;;8.04;62.92;96733.16;1757561;80;21530;-51
2021/04/18 01:14:54;;;;;;;26.05;16.97;;;;;;;8.03;62.94;96737.97;1774268;80;21549;-52
2021/04/18 01:17:23;;;;;;;27.87;17.42;;;;;;;8.00;62.99;96736.86;1785246;80;21127;-51
2021/04/18 01:19:52;;;;;;;30.68;18.23;;;;;;;7.97;63.02;96737.85;1734850;80;21135;-51
2021/04/18 01:22:20;;;;;;;30.97;18.12;;;;;;;7.93;63.07;96736.38;1776293;79;22215;-51
2021/04/18 01:24:49;;;;;;;29.05;17.67;;;;;;;7.88;63.04;96737.92;1802440;79;21091;-51
2021/04/18 01:27:37;;;;;;;36.98;17.92;;;;;;;7.81;63.23;96735.34;1806082;79;21560;-51
2021/04/18 01:30:09;;;;;;;31.27;18.52;;;;;;;7.78;63.48;96727.75;1791957;79;21109;-51
2021/04/18 01:32:36;;;;;;;27.90;18.07;;;;;;;7.80;63.53;96734.13;1801341;79;21059;-51
2021/04/18 01:35:06;;;;;;;32.13;19.52;;;;;;;7.78;63.42;96730.78;1759233;79;21664;-51
2021/04/18 01:37:33;;;;;;;26.30;17.77;;;;;;;7.76;63.50;96732.16;1778398;79;21576;-50
2021/04/18 01:40:01;;;;;;;30.80;17.98;;;;;;;7.75;63.64;96736.97;1804853;79;21104;-49
2021/04/18 01:42:29;;;;;;;34.98;18.52;;;;;;;7.74;63.67;96741.75;1806618;79;21080;-49
2021/04/18 01:44:57;;;;;;;30.55;17.92;;;;;;;7.74;63.70;96737.41;1785623;79;21116;-50
2021/04/18 01:47:25;;;;;;;33.48;16.93;;;;;;;7.74;63.77;96739.98;1778353;79;21373;-50
2021/04/18 01:49:53;;;;;;;32.73;16.85;;;;;;;7.76;63.81;96739.91;1789935;79;21187;-51
2021/04/18 01:52:21;;;;;;;31.20;17.45;;;;;;;7.76;64.02;96739.91;1775106;79;21131;-50
2021/04/18 01:54:50;;;;;;;34.30;18.45;;;;;;;7.76;63.98;96730.86;1775027;79;21196;-49
2021/04/18 01:57:20;;;;;;;30.43;19.30;;;;;;;7.73;63.86;96735.77;1786283;79;21547;-49
2021/04/18 01:59:48;;;;;;;33.80;18.57;;;;;;;7.69;63.77;96734.25;1799150;79;21187;-49
2021/04/18 02:02:26;;;;;;;30.77;17.98;;;;;;;7.62;63.70;96729.08;1886607;76;27635;-49
2021/04/18 02:04:56;;;;;;;31.80;17.02;;;;;;;7.47;64.06;96728.19;1776210;80;21079;-50
2021/04/18 02:07:25;;;;;;;;;;;;;;;7.39;64.36;96730.36;1792462;79;21362;-50
2021/04/18 02:09:54;;;;;;;40.67;17.82;;;;;;;7.34;64.58;96718.17;1801544;78;20225;-50
2021/04/18 02:12:22;;;;;;;32.05;16.95;;;;;;;7.28;64.71;96713.34;1790848;80;21148;-49
2021/04/18 02:14:51;;;;;;;35.63;17.60;;;;;;;7.22;64.89;96722.27;1829417;77;21122;-49
2021/04/18 02:17:20;;;;;;;34.20;19.23;;;;;;;7.14;65.08;96716.23;1819004;77;21113;-51
2021/04/18 02:19:48;;;;;;;37.28;16.37;;;;;;;7.05;65.23;96717.19;1815215;77;21451;-51
2021/04/18 02:22:17;;;;;;;33.28;19.20;;;;;;;6.99;65.55;96712.74;1801767;79;21061;-51
2021/04/18 02:24:46;;;;;;;28.83;18.00;;;;;;;6.98;65.81;96711.06;1796431;79;21503;-50
2021/04/18 02:27:15;;;;;;;36.45;18.42;;;;;;;7.00;65.91;96711.80;1781250;80;21048;-50
2021/04/18 02:29:51;;;;;;;34.55;19.00;;;;;;;7.02;65.93;96713.02;1791342;79;21128;-51
2021/04/18 02:32:22;;;;;;;31.20;19.07;;;;;;;7.02;65.82;96709.61;1752749;81;21561;-50
2021/04/18 02:34:52;;;;;;;31.07;18.73;;;;;;;7.03;65.71;96709.53;1784296;80;21142;-50
2021/04/18 02:37:20;;;;;;;28.57;18.00;;;;;;;7.02;65.64;96709.61;1784523;80;21132;-51
2021/04/18 02:39:48;;;;;;;31.62;17.98;;;;;;;6.99;65.71;96702.89;1765344;81;21485;-50
2021/04/18 02:42:18;;;;;;;31.15;17.92;;;;;;;6.97;65.74;96704.26;1764555;81;21085;-50
2021/04/18 02:44:46;;;;;;;32.97;19.93;;;;;;;6.94;65.64;96698.41;1762878;81;21210;-51
2021/04/18 02:47:13;;;;;;;31.12;19.75;;;;;;;6.88;65.69;96696.19;1745876;81;21112;-50
2021/04/18 02:49:43;;;;;;;35.60;21.05;;;;;;;6.82;65.68;96702.48;1765285;81;21178;-50
2021/04/18 02:52:11;;;;;;;36.53;19.80;;;;;;;6.76;65.74;96705.39;1764215;81;21127;-50
2021/04/18 02:54:38;;;;;;;34.38;20.35;;;;;;;6.74;65.75;96700.34;1765465;81;21175;-50
2021/04/18 02:57:08;;;;;;;37.90;20.92;;;;;;;6.74;65.88;96707.22;1766204;81;21770;-50
2021/04/18 02:59:36;;;;;;;39.80;20.60;;;;;;;6.72;65.73;96707.30;1765394;81;21245;-51
2021/04/18 03:02:04;;;;;;;31.90;20.05;;;;;;;6.66;65.76;96703.78;1761350;81;21494;-50
2021/04/18 03:04:33;;;;;;;37.13;20.77;;;;;;;6.54;65.81;96700.55;1765960;81;21093;-50
2021/04/18 03:07:02;;;;;;;33.10;21.27;;;;;;;6.38;66.09;96701.36;1767327;81;21104;-50
2021/04/18 03:09:30;;;;;;;35.47;21.33;;;;;;;6.25;66.48;96703.73;1739564;81;21400;-50
2021/04/18 03:11:58;;;;;;;33.15;20.90;;;;;;;6.22;66.66;96706.92;1767232;81;21596;-50
2021/04/18 03:14:31;;;;;;;36.25;21.00;;;;;;;6.21;66.72;96706.54;1765403;81;21147;-50
2021/04/18 03:16:59;;;;;;;38.35;21.70;;;;;;;6.19;66.78;96705.33;1765182;81;21159;-51
2021/04/18 03:19:28;;;;;;;34.78;19.60;;;;;;;6.19;66.74;96710.95;1765468;81;21174;-50
2021/04/18 03:21:58;;;;;;;35.17;19.40;;;;;;;6.17;66.62;96711.48;1781055;80;22258;-49
2021/04/18 03:24:26;;;;;;;40.30;21.07;;;;;;;6.17;66.74;96708.45;1766771;81;21092;-49
2021/04/18 03:26:54;;;;;;;41.73;22.80;;;;;;;6.20;66.82;96708.30;1766615;81;21060;-51
2021/04/18 03:29:22;;;;;;;38.35;20.72;;;;;;;6.20;66.73;96705.72;1766586;81;21104;-50
2021/04/18 03:31:51;;;;;;;36.48;20.70;;;;;;;6.19;66.79;96709.66;1763974;80;23936;-49
2021/04/18 03:34:20;;;;;;;43.63;21.73;;;;;;;6.13;66.77;96710.78;1766791;81;21369;-49
2021/04/18 03:36:48;;;;;;;40.50;22.47;;;;;;;6.11;66.94;96711.33;1766932;81;21080;-49
2021/04/18 03:39:17;;;;;;;34.75;19.60;;;;;;;6.17;66.84;96717.93;1766730;81;21612;-51
2021/04/18 03:41:47;;;;;;;34.30;19.30;;;;;;;6.18;66.61;96720.40;1738294;81;21139;-50
2021/04/18 03:44:15;;;;;;;39.05;20.32;;;;;;;6.13;66.62;96722.84;1766789;81;21067;-54
2021/04/18 03:46:45;;;;;;;38.80;19.55;;;;;;;6.05;66.75;96717.64;1764703;79;21766;-51
2021/04/18 03:49:14;;;;;;;30.62;18.17;;;;;;;6.00;66.83;96722.19;1765967;80;21064;-51
2021/04/18 03:51:46;;;;;;;34.18;16.87;;;;;;;5.94;66.90;96721.17;1767131;80;21507;-51
2021/04/18 03:54:14;;;;;;;;;;;;;;;5.82;67.36;96725.19;1779767;80;21060;-51
2021/04/18 03:56:43;;;;;;;40.83;18.07;;;;;;;5.87;67.81;96727.08;1780869;80;20147;-51
2021/04/18 03:59:11;;;;;;;34.65;18.17;;;;;;;5.98;67.88;96728.31;1776412;80;22070;-51
2021/04/18 04:01:40;;;;;;;38.20;18.70;;;;;;;6.11;67.61;96729.36;1741132;80;21180;-51
2021/04/18 04:04:10;;;;;;;36.65;18.48;;;;;;;6.25;67.36;96733.83;1786396;79;21172;-50
2021/04/18 04:06:40;;;;;;;33.05;17.62;;;;;;;6.38;67.01;96736.59;1765030;81;21143;-50
2021/04/18 04:09:07;;;;;;;33.33;17.98;;;;;;;6.47;66.77;96739.17;1765245;81;21077;-50
2021/04/18 04:11:42;;;;;;;33.98;19.15;;;;;;;6.52;66.33;96737.19;1765085;81;22285;-50
2021/04/18 04:14:11;;;;;;;30.72;18.27;;;;;;;6.51;66.16;96737.62;1765025;81;21122;-50
2021/04/18 04:16:41;;;;;;;33.45;18.57;;;;;;;6.48;65.98;96739.09;1761203;81;21152;-50
2021/04/18 04:19:11;;;;;;;25.75;17.45;;;;;;;6.44;65.72;96744.84;1759407;81;21565;-50
2021/04/18 04:22:08;;;;;;;27.03;16.57;;;;;;;6.39;66.05;96744.70;1864047;76;28484;-50
2021/04/18 04:24:52;;;;;;;32.53;18.05;;;;;;;6.37;66.13;96751.23;1841558;78;21166;-51
2021/04/18 04:27:20;;;;;;;31.95;19.00;;;;;;;6.39;66.20;96753.73;1835345;78;21421;-51
2021/04/18 04:29:48;;;;;;;29.55;18.25;;;;;;;6.37;66.17;96756.84;1826979;78;21047;-51
2021/04/18 04:32:16;;;;;;;28.98;18.20;;;;;;;6.31;66.25;96755.40;1827803;78;21110;-50
2021/04/18 04:34:44;;;;;;;30.00;18.00;;;;;;;6.30;66.37;96760.63;1808766;79;21059;-50
2021/04/18 04:37:13;;;;;;;24.15;17.62;;;;;;;6.30;66.41;96761.92;1809349;78;21159;-51
2021/04/18 04:39:42;;;;;;;27.70;18.73;;;;;;;6.35;66.41;96755.64;1770586;80;21187;-50
2021/04/18 04:42:09;;;;;;;31.17;18.52;;;;;;;6.40;66.32;96756.23;1765612;81;21175;-51
2021/04/18 04:44:37;;;;;;;28.70;18.57;;;;;;;6.41;66.11;96751.47;1781984;80;21640;-50
2021/04/18 04:47:05;;;;;;;29.60;18.70;;;;;;;6.42;66.19;96753.11;1748920;80;21091;-50
2021/04/18 04:49:33;;;;;;;34.77;18.30;;;;;;;6.47;66.23;96748.19;1756802;81;21107;-50
2021/04/18 04:52:01;;;;;;;27.67;17.55;;;;;;;6.51;66.16;96744.06;1766968;80;21811;-50
2021/04/18 04:54:29;;;;;;;28.80;18.85;;;;;;;6.58;66.12;96748.47;1767736;80;21115;-50
2021/04/18 04:56:58;;;;;;;29.07;18.52;;;;;;;6.64;66.12;96746.84;1758517;80;21099;-51
2021/04/18 04:59:26;;;;;;;33.00;19.45;;;;;;;6.63;66.01;96750.35;1761844;80;21075;-51
2021/04/18 05:01:54;;;;;;;28.83;19.12;;;;;;;6.60;65.98;96746.17;1761289;80;21120;-51
2021/04/18 05:04:22;;;;;;;31.93;18.48;;;;;;;6.58;65.97;96745.89;1757161;80;21200;-51
2021/04/18 05:06:52;;;;;;;141.05;90.77;;;;;;;6.58;66.16;96744.61;1781886;80;21111;-50
2021/04/18 05:09:21;;;;;;;77.78;43.98;;;;;;;6.64;66.24;96741.69;1787766;80;21096;-51
2021/04/18 05:11:49;;;;;;;35.88;22.15;;;;;;;6.72;66.11;96738.25;1782048;80;21634;-50
2021/04/18 05:14:17;;;;;;;34.03;19.93;;;;;;;6.79;66.00;96734.45;1764094;78;21473;-52
2021/04/18 05:16:45;;;;;;;33.28;19.45;;;;;;;6.87;65.95;96743.05;1778515;80;21229;-50
2021/04/18 05:19:13;;;;;;;39.25;19.73;;;;;;;6.94;65.89;96744.41;1787452;80;21584;-50
2021/04/18 05:21:41;;;;;;;34.92;18.92;;;;;;;7.03;65.84;96746.94;1756535;79;21132;-50
2021/04/18 05:24:09;;;;;;;29.50;17.82;;;;;;;7.10;65.68;96748.27;1784619;80;21065;-51
2021/04/18 05:26:37;;;;;;;31.37;18.03;;;;;;;7.12;65.46;96749.47;1759293;80;21194;-51
2021/04/18 05:29:05;;;;;;;37.80;18.90;;;;;;;7.09;65.42;96749.20;1776450;80;21387;-50
2021/04/18 05:31:33;;;;;;;31.37;18.15;;;;;;;7.04;65.43;96743.45;1786210;80;21117;-50
2021/04/18 05:34:01;;;;;;;44.25;19.95;;;;;;;7.03;65.73;96748.70;1774708;80;21124;-50
2021/04/18 05:36:29;;;;;;;35.52;19.02;;;;;;;7.08;65.80;96746.23;1779265;80;21052;-50
2021/04/18 05:38:57;;;;;;;36.83;18.82;;;;;;;7.16;65.82;96747.94;1727689;82;21123;-50
2021/04/18 05:41:26;;;;;;;36.77;20.27;;;;;;;7.26;65.51;96749.56;1713548;83;21110;-50
2021/04/18 05:43:54;;;;;;;35.95;19.32;;;;;;;7.31;65.28;96748.03;1713556;82;21580;-50
2021/04/18 05:46:22;;;;;;;40.33;21.45;;;;;;;7.39;65.10;96748.91;1737191;80;21110;-50
2021/04/18 05:48:49;;;;;;;35.50;20.05;;;;;;;7.44;64.87;96751.59;1745893;80;21455;-51
2021/04/18 05:51:17;;;;;;;33.13;20.75;;;;;;;7.49;64.70;96744.89;1721440;81;21147;-50
2021/04/18 05:53:45;;;;;;;33.80;19.35;;;;;;;7.57;64.40;96751.75;1717757;81;21394;-51
2021/04/18 05:56:13;;;;;;;37.70;18.82;;;;;;;7.62;64.13;96741.17;1748231;81;21126;-50
2021/04/18 05:58:41;;;;;;;31.97;19.95;;;;;;;7.63;64.01;96739.79;1710467;82;21118;-50
2021/04/18 06:01:08;;;;;;;29.48;17.62;;;;;;;7.65;63.77;96749.56;1719218;83;21096;-50
2021/04/18 06:03:36;;;;;;;40.48;17.60;;;;;;;7.69;63.85;96748.46;1757717;80;21497;-51
2021/04/18 06:06:05;;;;;;;29.20;18.90;;;;;;;7.75;63.90;96752.47;1729402;81;21281;-51
2021/04/18 06:08:34;;;;;;;;;;;;;;;7.81;63.79;96752.13;1755076;80;21090;-50
2021/04/18 06:11:02;;;;;;;27.42;17.42;;;;;;;7.85;63.57;96759.23;1710713;82;20265;-50
2021/04/18 06:13:29;;;;;;;26.90;18.35;;;;;;;7.89;63.43;96763.30;1731798;81;21146;-50
2021/04/18 06:15:58;;;;;;;27.40;18.87;;;;;;;7.96;63.25;96759.90;1733298;81;21082;-51
2021/04/18 06:18:25;;;;;;;30.25;18.23;;;;;;;8.00;63.17;96762.69;1758412;81;22112;-50
2021/04/18 06:20:53;;;;;;;28.17;19.05;;;;;;;8.09;63.07;96775.06;1753550;81;21194;-50
2021/04/18 06:26:00;;;;;;;28.30;18.80;;;;;;;8.21;62.80;96775.66;1765529;79;27966;-50
2021/04/18 06:28:27;;;;;;;26.87;18.40;;;;;;;8.22;62.67;96769.59;1719980;82;21081;-50
2021/04/18 06:30:55;;;;;;;39.63;19.75;;;;;;;8.27;62.46;96772.73;1733246;82;21407;-49
2021/04/18 06:33:23;;;;;;;29.15;18.52;;;;;;;8.28;62.58;96769.20;1723808;82;21152;-49
2021/04/18 06:35:51;;;;;;;29.07;18.42;;;;;;;8.31;62.68;96768.20;1719860;83;21176;-50
2021/04/18 06:38:19;;;;;;;28.95;19.12;;;;;;;8.37;62.54;96767.00;1730656;82;21065;-50
2021/04/18 06:40:52;;;;;;;31.95;19.80;;;;;;;8.42;62.44;96771.00;1741485;81;21072;-49
2021/04/18 06:43:21;;;;;;;29.07;18.70;;;;;;;8.48;62.49;96773.70;1723045;82;22029;-52
2021/04/18 06:45:52;;;;;;;34.30;21.60;;;;;;;8.58;62.39;96772.70;1733648;82;21074;-50
2021/04/18 06:48:22;;;;;;;35.15;20.55;;;;;;;8.68;62.04;96772.98;1742912;82;21170;-51
2021/04/18 06:50:51;;;;;;;37.30;20.77;;;;;;;8.76;61.67;96770.29;1743940;82;21085;-51
2021/04/18 06:53:18;;;;;;;30.37;20.17;;;;;;;8.86;61.56;96764.57;1730660;82;21470;-50
2021/04/18 06:55:46;;;;;;;31.97;19.48;;;;;;;8.99;61.22;96772.77;1731028;82;21399;-50
2021/04/18 06:58:14;;;;;;;37.17;18.60;;;;;;;9.13;60.85;96765.47;1749504;82;21124;-50
2021/04/18 07:00:42;;;;;;;29.92;18.25;;;;;;;9.20;60.10;96765.45;1738343;82;21609;-50
2021/04/18 07:03:21;;;;;;;30.30;17.25;;;;;;;9.13;59.75;96768.06;1742977;80;21585;-50
2021/04/18 07:05:48;;;;;;;27.35;17.67;;;;;;;9.04;59.96;96764.73;1744438;81;21065;-50
2021/04/18 07:08:31;;;;;;;25.48;17.48;;;;;;;9.02;60.11;96759.64;1720317;82;21608;-51
2021/04/18 07:11:15;;;;;;;33.05;18.35;;;;;;;9.01;60.28;96761.03;1732076;82;21072;-51
2021/04/18 07:13:46;;;;;;;36.08;18.75;;;;;;;9.09;60.39;96760.09;1736526;82;21140;-51
2021/04/18 07:16:25;;;;;;;25.52;17.17;;;;;;;9.33;60.34;96765.99;1731630;82;21156;-51
2021/04/18 07:18:53;;;;;;;28.20;17.20;;;;;;;9.56;60.04;96765.83;1720077;83;21486;-50
2021/04/18 07:21:22;;;;;;;22.30;16.32;;;;;;;9.76;59.17;96765.84;1711576;83;21967;-52
2021/04/18 07:23:55;;;;;;;26.77;16.67;;;;;;;9.86;58.45;96758.31;1719692;82;21105;-51
2021/04/18 07:26:26;;;;;;;23.87;16.15;;;;;;;9.97;58.25;96755.00;1717623;83;21132;-53
2021/04/18 07:29:19;;;;;;;23.38;15.83;;;;;;;10.02;58.17;96752.96;1695590;83;21144;-51
2021/04/18 07:31:48;;;;;;;20.37;15.25;;;;;;;10.18;57.82;96750.17;1719849;83;21069;-51
2021/04/18 07:34:21;;;;;;;20.32;13.70;;;;;;;10.47;57.15;96745.66;1719760;83;21468;-52
2021/04/18 07:37:10;;;;;;;20.48;13.58;;;;;;;10.68;56.03;96749.38;1719130;82;21122;-52
2021/04/18 07:39:44;;;;;;;24.43;13.60;;;;;;;10.70;55.22;96748.46;1718855;82;21161;-51
2021/04/18 07:42:36;;;;;;;15.68;11.30;;;;;;;10.42;55.48;96747.27;1685265;83;21633;-50
2021/04/18 07:45:11;;;;;;;18.25;11.65;;;;;;;10.14;54.98;96742.59;1703569;83;21165;-52
2021/04/18 07:47:40;;;;;;;17.07;11.30;;;;;;;9.86;56.21;96746.64;1705341;83;22123;-52
2021/04/18 07:50:17;;;;;;;20.43;11.88;;;;;;;9.82;55.91;96742.13;1719123;83;21144;-51
2021/04/18 07:52:47;;;;;;;17.60;11.25;;;;;;;9.92;55.98;96738.48;1719081;83;21140;-51
2021/04/18 07:55:16;;;;;;;14.50;10.58;;;;;;;10.17;55.51;96738.16;1718530;82;21141;-51
2021/04/18 07:57:43;;;;;;;14.80;11.08;;;;;;;10.41;54.38;96734.39;1714877;82;24119;-51
2021/04/18 08:00:13;;;;;;;14.83;9.85;;;;;;;10.39;54.83;96731.08;1691094;83;21217;-52
2021/04/18 08:02:49;;;;;;;20.05;11.63;;;;;;;10.58;54.35;96735.39;1706436;83;21561;-52
2021/04/18 08:05:19;;;;;;;16.45;10.82;;;;;;;10.76;53.99;96735.07;1714972;83;21149;-50
2021/04/18 08:08:12;;;;;;;15.98;10.98;;;;;;;10.58;53.63;96734.09;1719223;83;21120;-50
2021/04/18 08:10:45;;;;;;;20.08;10.93;;;;;;;10.33;53.95;96731.48;1706568;82;21070;-50
2021/04/18 08:13:24;;;;;;;12.00;9.93;;;;;;;10.30;54.41;96722.13;1707614;83;21439;-51
2021/04/18 08:16:04;;;;;;;14.30;10.15;;;;;;;10.56;53.91;96674.14;1716980;83;21602;-51
2021/04/18 08:18:41;;;;;;;11.20;9.18;;;;;;;10.80;53.43;96713.97;1718951;83;21101;-51
2021/04/18 08:21:39;;;;;;;11.63;8.85;;;;;;;10.86;51.80;96720.52;1718635;82;21077;-51
2021/04/18 08:24:22;;;;;;;15.32;9.58;;;;;;;10.51;52.64;96717.30;1705919;83;21497;-51
2021/04/18 08:27:05;;;;;;;24.55;10.35;;;;;;;10.29;52.50;96714.80;1706574;83;21221;-52
2021/04/18 08:29:37;;;;;;;12.35;8.93;;;;;;;10.54;53.12;96717.05;1706402;83;21144;-51
2021/04/18 08:32:09;;;;;;;19.05;9.05;;;;;;;10.93;51.58;96711.35;1664434;85;21545;-52
2021/04/18 08:34:43;;;;;;;11.55;8.03;;;;;;;11.02;50.79;96708.12;1704810;82;21518;-50
2021/04/18 08:37:20;;;;;;;10.48;8.53;;;;;;;10.99;49.88;96717.90;1719121;82;21168;-51
2021/04/18 08:39:49;;;;;;;11.12;8.45;;;;;;;10.83;50.09;96709.86;1715303;82;21365;-52
2021/04/18 08:42:28;;;;;;;11.55;7.53;;;;;;;10.77;50.05;96713.36;1713573;83;21093;-53
2021/04/18 08:44:57;;;;;;;;;;;;;;;10.74;50.51;96711.81;1715727;83;21152;-51
2021/04/18 08:47:28;;;;;;;20.60;9.88;;;;;;;10.58;51.01;96706.84;1703233;82;20220;-52
2021/04/18 08:50:10;;;;;;;14.93;8.48;;;;;;;10.38;51.87;96712.11;1686055;83;21540;-51
2021/04/18 08:52:38;;;;;;;10.63;8.10;;;;;;;10.25;52.18;96704.28;1704670;83;21332;-52
2021/04/18 08:55:10;;;;;;;11.93;8.05;;;;;;;10.17;51.87;96707.86;1678467;83;21149;-53
2021/04/18 08:57:38;;;;;;;14.93;8.20;;;;;;;10.02;51.78;96711.48;1700564;83;21110;-51
2021/04/18 09:00:15;;;;;;;13.98;8.25;;;;;;;9.84;51.75;96713.53;1643645;85;21132;-52
2021/04/18 09:02:53;;;;;;;29.48;9.63;;;;;;;9.70;52.44;96702.75;1677664;85;21160;-51
2021/04/18 09:05:23;;;;;;;11.70;7.53;;;;;;;9.69;53.37;96704.52;1678969;84;21147;-52
2021/04/18 09:07:51;;;;;;;20.43;8.88;;;;;;;9.78;53.12;96697.08;1702298;83;21594;-50
2021/04/18 09:10:20;;;;;;;12.55;8.68;;;;;;;9.81;52.84;96703.36;1716325;83;21069;-52
2021/04/18 09:12:50;;;;;;;32.23;13.35;;;;;;;9.75;52.74;96690.32;1710458;83;21069;-52
2021/04/18 09:15:18;;;;;;;23.45;11.10;;;;;;;9.63;53.12;96695.03;1651816;83;21081;-52
2021/04/18 09:17:45;;;;;;;27.90;14.37;;;;;;;9.49;53.28;96694.16;1703380;83;21448;-52
2021/04/18 09:20:17;;;;;;;13.43;8.23;;;;;;;9.51;53.32;96700.55;1704794;83;21158;-52
2021/04/18 09:22:45;;;;;;;17.70;8.38;;;;;;;9.55;53.30;96689.03;1698532;83;21129;-51
2021/04/18 09:25:18;;;;;;;12.00;8.03;;;;;;;9.56;53.44;96687.64;1688493;83;21133;-51
2021/04/18 09:27:53;;;;;;;10.48;6.80;;;;;;;9.72;53.13;96687.48;1679817;84;21145;-52
2021/04/18 09:30:29;;;;;;;11.60;7.53;;;;;;;9.94;52.14;96685.59;1689740;84;22412;-53
2021/04/18 09:33:01;;;;;;;9.33;6.97;;;;;;;9.99;51.99;96677.52;1690502;84;21487;-51
2021/04/18 09:35:29;;;;;;;10.63;6.87;;;;;;;9.95;52.19;96681.26;1695306;84;21557;-51
2021/04/18 09:38:00;;;;;;;14.33;7.83;;;;;;;10.06;51.73;96676.63;1699073;84;21217;-51
2021/04/18 09:40:33;;;;;;;9.10;7.37;;;;;;;9.96;51.88;96675.12;1702233;84;21196;-51
2021/04/18 09:43:06;;;;;;;9.58;7.70;;;;;;;9.93;51.79;96674.02;1696704;84;21344;-51
2021/04/18 09:45:35;;;;;;;8.58;6.85;;;;;;;9.86;51.69;96672.78;1702601;84;21153;-51
2021/04/18 09:48:18;;;;;;;9.80;6.75;;;;;;;9.93;51.07;96666.25;1693067;84;21137;-51
2021/04/18 09:51:00;;;;;;;10.45;7.47;;;;;;;10.15;50.37;96664.36;1675564;83;21137;-51
2021/04/18 09:53:30;;;;;;;12.50;7.40;;;;;;;10.45;50.70;96661.93;1695620;83;21077;-52
2021/04/18 09:56:05;;;;;;;9.23;7.28;;;;;;;10.78;49.57;96665.71;1693280;84;21117;-52
2021/04/18 09:58:39;;;;;;;8.70;7.20;;;;;;;11.11;49.41;96659.06;1689534;84;21124;-51
2021/04/18 10:01:33;;;;;;;9.43;6.67;;;;;;;11.50;48.10;96659.73;1687235;83;21139;-51
2021/04/18 10:04:00;;;;;;;7.53;6.78;;;;;;;11.82;46.29;96661.71;1697160;84;21849;-52
2021/04/18 10:06:46;;;;;;;10.63;6.58;;;;;;;11.82;46.37;96650.02;1691578;83;21070;-54
2021/04/18 10:09:14;;;;;;;8.55;6.58;;;;;;;11.94;45.90;96653.86;1687941;84;21207;-52
2021/04/18 10:12:00;;;;;;;8.70;7.70;;;;;;;12.07;45.32;96661.58;1697604;84;21256;-52
2021/04/18 10:14:29;;;;;;;9.43;7.70;;;;;;;11.95;45.10;96660.70;1685288;84;21227;-51
2021/04/18 10:16:58;;;;;;;8.98;7.03;;;;;;;11.64;45.62;96653.02;1691530;84;21181;-51
2021/04/18 10:19:28;;;;;;;14.95;7.72;;;;;;;11.48;46.23;96659.84;1694117;84;21070;-51
2021/04/18 10:22:10;;;;;;;7.70;6.90;;;;;;;11.45;45.96;96661.81;1693609;84;22143;-52
2021/04/18 10:24:50;;;;;;;16.17;7.95;;;;;;;11.51;45.73;96657.02;1686689;83;21502;-51
2021/04/18 10:27:24;;;;;;;12.20;7.47;;;;;;;11.69;45.49;96653.98;1663464;85;21539;-52
2021/04/18 10:29:52;;;;;;;14.07;7.47;;;;;;;11.91;45.15;96657.98;1692728;84;21189;-53
2021/04/18 10:32:21;;;;;;;14.75;8.20;;;;;;;12.05;44.39;96654.34;1693540;83;21438;-52
2021/04/18 10:34:52;;;;;;;15.28;8.05;;;;;;;11.95;44.53;96658.10;1693508;84;21376;-51
2021/04/18 10:37:22;;;;;;;10.65;7.72;;;;;;;11.99;45.49;96660.47;1697031;84;21209;-51
2021/04/18 10:39:51;;;;;;;20.37;9.05;;;;;;;12.33;44.78;96652.24;1703734;84;21156;-51
2021/04/18 10:42:19;;;;;;;8.88;7.78;;;;;;;12.65;44.60;96645.86;1700016;84;21232;-51
2021/04/18 10:44:48;;;;;;;6.42;5.83;;;;;;;12.99;43.39;96643.22;1697369;83;21189;-52
2021/04/18 10:47:17;;;;;;;10.10;7.85;;;;;;;13.24;42.21;96643.86;1685225;84;22254;-51
2021/04/18 10:49:47;;;;;;;8.98;7.90;;;;;;;13.42;42.45;96643.70;1700388;84;21145;-53
2021/04/18 10:52:16;;;;;;;28.57;8.58;;;;;;;13.68;41.93;96636.81;1685433;84;21591;-51
2021/04/18 10:54:43;;;;;;;15.20;7.78;;;;;;;14.00;41.58;96642.45;1662062;84;21589;-51
2021/04/18 10:57:14;;;;;;;10.90;7.80;;;;;;;14.30;41.18;96633.00;1665523;85;21177;-52
2021/04/18 10:59:41;;;;;;;7.67;6.57;;;;;;;14.46;40.91;96635.14;1658590;86;21468;-51
2021/04/18 11:02:11;;;;;;;9.83;7.60;;;;;;;14.73;39.75;96641.09;1656072;86;21118;-50
2021/04/18 11:04:39;;;;;;;10.30;6.77;;;;;;;14.75;38.63;96639.16;1651530;85;21106;-52
2021/04/18 11:07:08;;;;;;;7.97;7.17;;;;;;;14.39;38.98;96637.45;1655570;86;21143;-50
2021/04/18 11:09:37;;;;;;;9.23;7.95;;;;;;;14.09;40.50;96629.11;1651007;86;21843;-53
2021/04/18 11:12:18;;;;;;;10.50;7.53;;;;;;;14.04;40.69;96630.80;1662865;86;21160;-51
2021/04/18 11:14:47;;;;;;;8.60;6.83;;;;;;;14.06;41.51;96626.75;1657348;86;21094;-52
2021/04/18 11:17:16;;;;;;;10.63;7.35;;;;;;;14.16;41.58;96631.54;1651433;86;21069;-51
2021/04/18 11:19:44;;;;;;;10.18;7.62;;;;;;;14.25;41.20;96624.25;1650166;86;21173;-51
2021/04/18 11:22:13;;;;;;;8.28;6.67;;;;;;;14.23;40.65;96622.74;1664796;85;21156;-51
2021/04/18 11:24:41;;;;;;;8.65;6.97;;;;;;;14.10;40.46;96625.55;1665044;84;21378;-51
2021/04/18 11:27:09;;;;;;;7.08;6.37;;;;;;;13.94;40.71;96620.79;1678158;85;21106;-51
2021/04/18 11:29:40;;;;;;;9.78;7.70;;;;;;;13.72;39.95;96625.19;1680332;84;21080;-52
2021/04/18 11:32:11;;;;;;;7.90;7.08;;;;;;;13.28;41.19;96622.28;1680226;84;21112;-52
2021/04/18 11:34:39;;;;;;;8.05;6.90;;;;;;;12.99;41.31;96618.92;1677201;84;21151;-51
2021/04/18 11:37:09;;;;;;;8.83;6.78;;;;;;;12.82;42.37;96620.27;1671609;84;21364;-51
2021/04/18 11:39:38;;;;;;;10.15;6.85;;;;;;;12.80;42.43;96619.58;1682795;84;21105;-51
2021/04/18 11:42:06;;;;;;;7.65;5.83;;;;;;;12.79;42.68;96622.63;1651097;86;21595;-51
2021/04/18 11:44:34;;;;;;;6.80;5.70;;;;;;;12.84;42.78;96618.37;1656009;85;21269;-53